Ever Diamond — 3FQS8 — position and weather

sailwx.info

Track history (hours):
 
Tides and Currents Weather Stations Pressure Air Temp Water Temp Dewpoint Dewpoint Depression Visibility Wind Speed Wind Dir Waves Ship Positions

Ever Diamond

Last reported at 2015-Jan-17 19:10 UTC. Time now 2015-Jan-29 04:22 UTC.
Position N 29°31' W 121°11'.
Warning: this ship's position is 11 days out of date.

Type: Ship (hazmat cat D). MMSI: 354893000.

Date/timePositionNaut miles runAvg speedWind from/ knotsBaromVisibWave heightAir tempDewpointWater temp
2015-Jan-17 19:10N 29°31' W 121°11'2616.1
2015-Jan-17 17:32N 29°16' W 120°46'1818.3
2015-Jan-17 16:32N 29°06' W 120°28'1515.2
2015-Jan-17 15:33N 28°57' W 120°14'1414.3
2015-Jan-17 14:33N 28°49' W 120°01'1514.5
2015-Jan-17 13:33N 28°41' W 119°47'1414.4
2015-Jan-17 12:33N 28°33' W 119°34'1414.5
2015-Jan-17 11:33N 28°24' W 119°20'7214.4
2015-Jan-17 06:32N 27°43' W 118°13'  
Track history (hours):
 
Tides and Currents Weather Stations Pressure Air Temp Water Temp Dewpoint Dewpoint Depression Visibility Wind Speed Wind Dir Waves Ship Positions

Ever Diamond

Last reported at 2015-Jan-17 19:10 UTC. Time now 2015-Jan-29 04:22 UTC.
Position N 29°31' W 121°11'.
Warning: this ship's position is 11 days out of date.

Type: Ship (hazmat cat D). MMSI: 354893000.

Date/timePositionNaut miles runAvg speedWind from/ knotsBaromVisibWave heightAir tempDewpointWater temp
2015-Jan-17 19:10N 29°31' W 121°11'2616.1
2015-Jan-17 17:32N 29°16' W 120°46'1818.3
2015-Jan-17 16:32N 29°06' W 120°28'1515.2
2015-Jan-17 15:33N 28°57' W 120°14'1414.3
2015-Jan-17 14:33N 28°49' W 120°01'1514.5
2015-Jan-17 13:33N 28°41' W 119°47'1414.4
2015-Jan-17 12:33N 28°33' W 119°34'1414.5
2015-Jan-17 11:33N 28°24' W 119°20'7214.4
2015-Jan-17 06:32N 27°43' W 118°13'  

Dump ship's entire track history